Home   Weather   USA   Houston   Past weeks
Flag for USA

Past Weather in Houston, Texas, USA — March 2021

Currently: 70 °F. Drizzle. Fog. (Weather station: Houston Hobby Airport, USA). See more current weather

March 2021 Weather in Houston — Graph

°F

High & Low Weather Summary for March 2021

 TemperatureHumidityPressure
High84 °F (Mar 27, 1:53 pm)97% (Mar 15, 5:53 am)30.48 "Hg (Mar 15, 5:53 am)
Low45 °F (Mar 3, 5:53 am)17% (Mar 17, 5:53 pm)29.58 "Hg (Mar 25, 3:53 am)
Average67 °F70%30.05 "Hg
* Reported Mar 1 12:07 am — Mar 31 11:53 pm, Houston. Weather by CustomWeather, © 2021

Note: Actual official high and low records may vary slightly from our data, if they occured in-between our weather recording intervals... More about our weather records

Houston Weather History for March 1, 2021

Scroll right to see more
 ConditionsComfort  
Time TempWeatherWind HumidityBarometerVisibility
12:07 am
Mon, Mar 1
72 °FFog.8 mph91%29.91 "Hg4 mi
12:53 am72 °FFog.8 mph91%29.92 "Hg4 mi
1:53 am72 °FFog.6 mph91%29.92 "Hg5 mi
2:39 am72 °FLow clouds.6 mph91%29.91 "Hg7 mi
2:53 am72 °FFog.8 mph91%29.92 "Hg6 mi
3:53 am71 °FFog.9 mph93%29.91 "Hg6 mi
4:53 am71 °FFog.7 mph93%29.91 "Hg6 mi
5:53 am71 °FFog.5 mph90%29.93 "Hg3 mi
6:26 am71 °FFog.3 mph90%29.93 "Hg3 mi
6:53 am71 °FFog.3 mph93%29.94 "Hg2 mi
7:18 am71 °FFog.3 mph93%29.94 "Hg1 mi
7:34 am71 °FFog.3 mph93%29.95 "Hg2 mi
7:53 am71 °FFog.No wind93%29.98 "Hg3 mi
8:30 am67 °FFog.13 mph87%29.98 "Hg6 mi
8:53 am65 °FLight rain. Low clouds.16 mph85%30.01 "Hg8 mi
9:53 am60 °FLow clouds.14 mph83%30.05 "Hg10 mi
10:53 am63 °FOvercast.17 mph75%30.06 "Hg10 mi
11:53 am63 °FOvercast.16 mph78%30.07 "Hg10 mi
12:53 pm63 °FOvercast.18 mph75%30.06 "Hg10 mi
1:53 pm62 °FOvercast.20 mph73%30.06 "Hg10 mi
2:53 pm61 °FOvercast.21 mph72%30.06 "Hg10 mi
3:53 pm61 °FOvercast.22 mph75%30.05 "Hg10 mi
4:53 pm61 °FOvercast.22 mph72%30.07 "Hg10 mi
5:53 pm59 °FOvercast.16 mph75%30.10 "Hg10 mi
6:53 pm57 °FLight rain. Overcast.13 mph83%30.12 "Hg10 mi
8:13 pm55 °FLight rain. Fog.14 mph90%30.15 "Hg6 mi
8:53 pm54 °FHeavy rain. Fog.15 mph90%30.19 "Hg4 mi
9:32 pm54 °FStrong thunderstorms. Fog.14 mph90%30.19 "Hg3 mi
9:53 pm54 °FStrong thunderstorms. Fog.15 mph90%30.22 "Hg4 mi
10:19 pm54 °FLight rain. Low clouds.15 mph90%30.20 "Hg7 mi
10:53 pm54 °FRain. Fog.13 mph90%30.22 "Hg4 mi
11:53 pm53 °FLight rain. Mostly cloudy.15 mph89%30.20 "Hg10 mi
Weather by CustomWeather, © 2021

See weather overview